• Join FlightAware (Why Join?)
  • Login
  • US Flag 
02:51AM EST


 

Airport Tracker/Info


-or-


 

Live Flight TrackerFlight Track Log ✈ N45NS ✈ 03-Mar-2014 ✈ KTRI - KBJJ

Flight Track Log - Related Links

Times and Time Zones

All times are in EST time to prevent confusion due to time zone crossing. See the N45NS flight status page for this flight to view local times or setup timezone preferences in your user account.

Time Position Orientation Groundspeed Altitude Reporting Facility
EST Latitude Longitude Course Direction KTS MPH feet Rate Location/Type
10:17AM 36.5308 -82.3672 25° Northeast 210 242 6,400  Level Atlanta Center
10:18AM 36.6017 -82.3606 North 230 265 9,500 3,060 Climbing Atlanta Center
10:20AM 36.6925 -82.3475 North 272 313 13,100 3,180 Climbing Indianapolis Center
10:21AM 36.7803 -82.3350 North 290 334 16,600 3,240 Climbing Indianapolis Center
10:22AM 36.8792 -82.3222 North 317 365 19,800 2,100 Climbing Indianapolis Center
10:23AM 36.9778 -82.3083 North 343 395 21,000 540 Climbing Indianapolis Center
10:24AM 37.0858 -82.2942 North 379 436 21,000 840 Level Indianapolis Center
10:25AM 37.1944 -82.2783 North 390 449 22,800 1,800 Climbing Indianapolis Center
10:26AM 37.3053 -82.2636 North 393 452 24,700 1,620 Climbing Indianapolis Center
10:27AM 37.4281 -82.2472 North 432 497 26,100 1,800 Climbing Indianapolis Center
10:28AM 37.5506 -82.2314 North 439 505 28,500 1,380 Climbing Indianapolis Center
10:29AM 37.6764 -82.2128 North 451 519 29,000 240 Climbing Indianapolis Center
10:30AM 37.8392 -82.1903 North 493 567 29,000  Level Indianapolis Center
10:31AM 37.9789 -82.1703 North 501 577 29,000  Level Indianapolis Center
10:32AM 38.0978 -82.1544 North 503 579 29,000  Level Indianapolis Center
10:33AM 38.2653 -82.1317 North 502 578 29,000  Level Indianapolis Center
10:34AM 38.4042 -82.1119 North 501 577 29,000  Level Indianapolis Center
10:35AM 38.5417 -82.0944 North 497 572 29,000 240 Level Indianapolis Center
10:36AM 38.6764 -82.0742 North 486 559 29,500 960 Climbing Indianapolis Center
10:37AM 38.8058 -82.0567 North 469 540 31,000 720 Climbing Indianapolis Center
10:38AM 38.9428 -82.0364 North 479 551 31,000  Level Indianapolis Center
10:39AM 39.0808 -82.0169 North 492 566 31,000  Level Indianapolis Center
10:40AM 39.2139 -81.9983 North 488 562 31,000 -720 Level Indianapolis Center
10:41AM 39.3406 -81.9792 North 470 541 29,600 -1,920 Descending Indianapolis Center
10:42AM 39.4606 -81.9617 North 442 509 27,200 -2,400 Descending Indianapolis Center
10:43AM 39.5811 -81.9447 North 437 503 24,700 -2,460 Descending Indianapolis Center
10:44AM 39.7028 -81.9281 North 437 503 22,200 -2,400 Descending Indianapolis Center
10:45AM 39.8364 -81.9072 North 426 490 19,900 -2,100 Descending Indianapolis Center
10:46AM 39.9478 -81.8919 North 412 474 17,900 -1,800 Descending Indianapolis Center
10:47AM 40.0461 -81.8925 360° North 361 415 16,300 -1,800 Descending Indianapolis Center
10:48AM 40.1456 -81.8928 360° North 358 412 14,300 -2,100 Descending Indianapolis Center
10:49AM 40.2411 -81.8914 North 333 383 12,100 -2,100 Descending Indianapolis Center
10:50AM 40.3289 -81.8908 360° North 318 366 10,000 -2,040 Descending Indianapolis Center
10:51AM 40.4008 -81.8892 North 263 303 8,000 -2,040 Descending Indianapolis Center
10:52AM 40.4719 -81.8897 360° North 253 291 5,900 -2,040 Descending Indianapolis Center
10:53AM 40.5389 -81.8900 360° North 246 283 3,900 -1,440 Descending Indianapolis Center
10:54AM 40.6064 -81.8917 359° North 241 277 3,000 -480 Descending Indianapolis Center
10:55AM 40.6725 -81.8883 North 240 276 3,000  Level Indianapolis Center
10:56AM 40.7478 -81.8894 359° North 240 276 3,000  Level Indianapolis Center